WetterOnline ( http://www.wetteronline.de )

Wetter aktuell Mülheim

Aktuelles Wetter: Essen (161m)

6-stündlich | Neueste Meldungen
Ortszeit Temperatur Wetter
So, 22.07. 8:00 16.4° C wolkenlos
So, 22.07. 2:00 19.4° C wolkenlos
Sa, 21.07. 20:00 22.3° C leichter Regen
Sa, 21.07. 14:00 27.1° C wolkenlos
Sa, 21.07. 8:00 19.5° C wolkig
Sa, 21.07. 2:00 18.4° C bedeckt
Fr, 20.07. 20:00 26.1° C wolkig
Fr, 20.07. 14:00 26.2° C wolkenlos
Ortszeit Temperatur Wetter
So, 22.07. 10:30 21.5° C leicht bewölkt
So, 22.07. 10:20 21.5° C leicht bewölkt
So, 22.07. 10:10 20.8° C leicht bewölkt
So, 22.07. 10:00 20.3° C fast wolkenlos
So, 22.07. 9:50 20.3° C fast wolkenlos
So, 22.07. 9:40 20.1° C wolkenlos
So, 22.07. 9:30 18.9° C wolkenlos
So, 22.07. 9:00 17.9° C wolkenlos
So, 22.07. 8:30 17.0° C fast wolkenlos
So, 22.07. 8:00 16.4° C wolkenlos
So, 22.07. 7:30 16.0° C leicht bewölkt
Ortszeit Relative Feuchte Sichtweite
So, 22.07. 8:00 85% 12 km
So, 22.07. 2:00 73% 30 km
Sa, 21.07. 20:00 65% 30 km
Sa, 21.07. 14:00 38% 30 km
Sa, 21.07. 8:00 74% 30 km
Sa, 21.07. 2:00 82% 29 km
Fr, 20.07. 20:00 32% 55 km
Fr, 20.07. 14:00 40% 35 km
Ortszeit Relative Feuchte Sichtweite
So, 22.07. 10:30 56% 35 km
So, 22.07. 10:20 56% -
So, 22.07. 10:10 59% -
So, 22.07. 10:00 67% 22 km
So, 22.07. 9:50 67% -
So, 22.07. 9:40 68% -
So, 22.07. 9:30 72% 17 km
So, 22.07. 9:00 79% 13 km
So, 22.07. 8:30 83% 13 km
So, 22.07. 8:00 85% 12 km
So, 22.07. 7:30 87% 13 km
Ortszeit Niederschlagsmenge Niederschlagsart
So, 22.07. 8:00 0.1 l/m2 in 12 Std. -
So, 22.07. 2:00 0.1 l/m2 in 6 Std. Regen
Sa, 21.07. 20:00 0.1 l/m2 in 12 Std. Regen
Sa, 21.07. 14:00 0.0 l/m2 in 6 Std. -
Sa, 21.07. 8:00 1 l/m2 in 12 Std. -
Sa, 21.07. 2:00 1 l/m2 in 6 Std. Regen
Fr, 20.07. 20:00 0.0 l/m2 in 12 Std. -
Fr, 20.07. 14:00 0.0 l/m2 in 6 Std. -
Ortszeit Niederschlagsmenge Niederschlagsart
So, 22.07. 10:30 0.0 l/m2 in 1 Std. -
So, 22.07. 10:20 keine Meldung -
So, 22.07. 10:10 keine Meldung -
So, 22.07. 10:00 0.0 l/m2 in 1 Std. -
So, 22.07. 9:50 keine Meldung -
So, 22.07. 9:40 keine Meldung -
So, 22.07. 9:30 0.0 l/m2 in 1 Std. -
So, 22.07. 9:00 0.0 l/m2 in 1 Std. -
So, 22.07. 8:30 0.0 l/m2 in 1 Std. -
So, 22.07. 8:00 0.0 l/m2 in 1 Std. -
So, 22.07. 7:30 0.0 l/m2 in 1 Std. -
Ortszeit Stärke Spitze Richtung
km/h Bft. km/h Grad Sektor
So, 22.07. 8:00 7 2 15 240° SW
So, 22.07. 2:00 7 2 22 310° NW
Sa, 21.07. 20:00 11 2 25 220° SW
Sa, 21.07. 14:00 7 2 18 290° W
Sa, 21.07. 8:00 6 1 13 240° SW
Sa, 21.07. 2:00 7 2 22 350° N
Fr, 20.07. 20:00 9 2 22 300° NW
Fr, 20.07. 14:00 9 2 20 300° NW
Ortszeit Stärke Spitze Richtung
km/h Bft. km/h Grad Sektor
So, 22.07. 10:30 7 2 18 290° W
So, 22.07. 10:20 7 2 - 290° W
So, 22.07. 10:10 9 2 - 300° NW
So, 22.07. 10:00 7 2 18 280° W
So, 22.07. 9:50 7 2 - 280° W
So, 22.07. 9:40 7 2 - 290° W
So, 22.07. 9:30 7 2 18 280° W
So, 22.07. 9:00 7 2 14 250° W
So, 22.07. 8:30 9 2 13 240° SW
So, 22.07. 8:00 7 2 13 240° SW
So, 22.07. 7:30 7 2 11 240° SW
Ortszeit Untergrenze Bedeckung Gattung
total tief tief mittel hoch
So, 22.07. 8:00 - 0/8 0/8 - - -
So, 22.07. 2:00 - 0/8 0/8 - - -
Sa, 21.07. 20:00 1800 m 8/8 7/8 - - -
Sa, 21.07. 14:00 - 0/8 0/8 - - -
Sa, 21.07. 8:00 2100 m 8/8 4/8 - - -
Sa, 21.07. 2:00 30 m 8/8 8/8 - - -
Fr, 20.07. 20:00 6000 m 7/8 2/8 - - -
Fr, 20.07. 14:00 - 0/8 0/8 - - -
Ortszeit Bedeckungsgrad in Achtel und Wolkenuntergrenze
So, 22.07. 10:30 6(9000m)
So, 22.07. 10:20 6(9000m)
So, 22.07. 10:10 3(9000m)
So, 22.07. 10:00 2(9000m)
So, 22.07. 9:50 2(9000m)
So, 22.07. 9:40 keine Wolken
So, 22.07. 9:30 keine Wolken
So, 22.07. 9:00 keine Wolken
So, 22.07. 8:30 1(1500m)
So, 22.07. 8:00 keine Wolken
So, 22.07. 7:30 2(1500m)
Ortszeit Luftdruck NN (hPa) Tendenz (hPa in 3 Std.)
So, 22.07. 8:00 1014 + 1,1
So, 22.07. 2:00 1013 + 0,8
Sa, 21.07. 20:00 1011 + 0,5
Sa, 21.07. 14:00 1011 0,0
Sa, 21.07. 8:00 1011 + 0,4
Sa, 21.07. 2:00 1011 - 0,6
Fr, 20.07. 20:00 1011 - 1,0
Fr, 20.07. 14:00 1013 - 0,8
Ortszeit Luftdruck NN (hPa) Tendenz (hPa in 3 Std.)
So, 22.07. 10:30 1015 + 0,7
So, 22.07. 10:20 1015 keine Meldung
So, 22.07. 10:10 1015 keine Meldung
So, 22.07. 10:00 1015 + 0,9
So, 22.07. 9:50 1015 keine Meldung
So, 22.07. 9:40 1015 keine Meldung
So, 22.07. 9:30 1015 + 1,1
So, 22.07. 9:00 1015 + 0,9
So, 22.07. 8:30 1015 + 1,3
So, 22.07. 8:00 1014 + 1,1
So, 22.07. 7:30 1014 + 1,0
Ortszeit Schneehöhe (cm)
So, 22.07. 8:00 -
So, 22.07. 2:00 -
Sa, 21.07. 20:00 -
Sa, 21.07. 14:00 -
Sa, 21.07. 8:00 -
Sa, 21.07. 2:00 -
Fr, 20.07. 20:00 -
Fr, 20.07. 14:00 -
Ortszeit Schneehöhe (cm)
So, 22.07. 10:30 -
So, 22.07. 10:20 -
So, 22.07. 10:10 -
So, 22.07. 10:00 -
So, 22.07. 9:50 -
So, 22.07. 9:40 -
So, 22.07. 9:30 -
So, 22.07. 9:00 -
So, 22.07. 8:30 -
So, 22.07. 8:00 -
So, 22.07. 7:30 -
Link zu dieser Seite / Seite empfehlen

Das Wetter in ...